Time;durP1;ratioP1;P1;durP2;ratioP2;P2;SDS_P1;SDS_P2;PMS_P1;PMS_P2;Temp;Humidity;BMP_temperature;BMP_pressure;BME280_temperature;BME280_humidity;BME280_pressure;Samples;Min_cycle;Max_cycle;Signal;HPM_P1;HPM_P2
2024/03/10 00:01:39;;;;;;;;;;;6.40;99.90;;;;;;5023309;28;20092;-75
2024/03/10 00:04:05;;;;;;;;;;;6.30;99.90;;;;;;5022900;28;20490;-76
2024/03/10 00:06:32;;;;;;;;;;;6.10;99.90;;;;;;5025143;28;19986;-75
2024/03/10 00:08:57;;;;;;;;;;;6.00;99.90;;;;;;5008064;28;20493;-74
2024/03/10 00:11:23;;;;;;;;;;;5.90;99.90;;;;;;5027081;28;20026;-76
2024/03/10 00:13:48;;;;;;;;;;;5.80;99.90;;;;;;5023114;28;20485;-75
2024/03/10 00:16:14;;;;;;;;;;;5.80;99.90;;;;;;5022725;28;20088;-75
2024/03/10 00:18:39;;;;;;;;;;;5.80;99.90;;;;;;5024293;28;20033;-73
2024/03/10 00:21:05;;;;;;;;;;;5.80;99.90;;;;;;5022481;28;19990;-75
2024/03/10 00:23:31;;;;;;;;;;;5.60;99.90;;;;;;5022044;28;20339;-74
2024/03/10 00:25:56;;;;;;;;;;;5.60;99.90;;;;;;5029910;28;20025;-76
2024/03/10 00:28:22;;;;;;;;;;;5.60;99.90;;;;;;5021975;28;19989;-77
2024/03/10 00:30:48;;;;;;;;;;;5.40;99.90;;;;;;5022360;28;20029;-75
2024/03/10 00:33:14;;;;;;;;;;;5.40;99.90;;;;;;5024221;28;20092;-73
2024/03/10 00:35:40;;;;;;;;;;;5.40;99.90;;;;;;5012383;28;20080;-75
2024/03/10 00:38:05;;;;;;;;;;;5.50;99.90;;;;;;5021703;28;19990;-75
2024/03/10 00:40:31;;;;;;;;;;;5.40;99.90;;;;;;5021928;28;20000;-74
2024/03/10 00:42:56;;;;;;;;;;;5.40;99.90;;;;;;5022851;28;19997;-77
2024/03/10 00:45:25;;;;;;;;;;;5.40;99.90;;;;;;5024441;28;20100;-73
2024/03/10 00:47:54;;;;;;;;;;;5.40;99.90;;;;;;5027756;28;20000;-73
2024/03/10 00:50:20;;;;;;;;;;;5.60;99.90;;;;;;5008346;28;19998;-73
2024/03/10 00:52:46;;;;;;;;;;;5.60;99.90;;;;;;5025568;28;20006;-76
2024/03/10 00:55:11;;;;;;;;;;;5.70;99.90;;;;;;5025253;28;19993;-76
2024/03/10 00:57:38;;;;;;;;;;;5.80;99.90;;;;;;5025512;28;19986;-74
2024/03/10 01:00:09;;;;;;;;;;;5.80;99.90;;;;;;5025759;28;20848;-74
2024/03/10 01:02:34;;;;;;;;;;;6.00;99.90;;;;;;5025090;28;19990;-76
2024/03/10 01:05:00;;;;;;;;;;;6.00;99.90;;;;;;5025720;28;20016;-74
2024/03/10 01:07:25;;;;;;;;;;;5.90;99.90;;;;;;5025576;28;20762;-77
2024/03/10 01:09:51;;;;;;;;;;;5.80;99.90;;;;;;5025302;28;20025;-76
2024/03/10 01:12:17;;;;;;;;;;;5.80;99.90;;;;;;5024991;28;20036;-73
2024/03/10 01:14:42;;;;;;;;;;;5.80;99.90;;;;;;5026026;28;19994;-73
2024/03/10 01:17:08;;;;;;;;;;;5.90;99.90;;;;;;5022479;28;19990;-74
2024/03/10 01:19:37;;;;;;;;;;;5.90;99.90;;;;;;5026359;28;19990;-72
2024/03/10 01:22:03;;;;;;;;;;;5.80;99.90;;;;;;5025778;28;20001;-74
2024/03/10 01:24:29;;;;;;;;;;;5.80;99.90;;;;;;5025678;28;20336;-72
2024/03/10 01:26:54;;;;;;;;;;;5.80;99.90;;;;;;5007868;28;19998;-76
2024/03/10 01:29:22;;;;;;;;;;;6.00;99.90;;;;;;5025785;28;19994;-78
2024/03/10 01:31:48;;;;;;;;;;;6.10;99.90;;;;;;5024776;28;20000;-75
2024/03/10 01:34:14;;;;;;;;;;;5.90;99.90;;;;;;5021304;28;20002;-74
2024/03/10 01:36:40;;;;;;;;;;;6.00;99.90;;;;;;5023666;28;20099;-74
2024/03/10 01:39:08;;;;;;;;;;;6.00;99.90;;;;;;5024912;28;19990;-75
2024/03/10 01:41:34;;;;;;;;;;;6.00;99.90;;;;;;5024402;28;19993;-73
2024/03/10 01:43:59;;;;;;;;;;;6.00;99.90;;;;;;5024906;28;19990;-74
2024/03/10 01:46:25;;;;;;;;;;;6.00;99.90;;;;;;5024615;28;19997;-75
2024/03/10 01:48:51;;;;;;;;;;;6.00;99.90;;;;;;5025030;28;19994;-73
2024/03/10 01:51:18;;;;;;;;;;;5.90;99.90;;;;;;5024413;28;19994;-74
2024/03/10 01:53:44;;;;;;;;;;;6.00;99.90;;;;;;5024300;28;20006;-75
2024/03/10 01:56:11;;;;;;;;;;;6.00;99.90;;;;;;5021178;28;19994;-72
2024/03/10 01:58:37;;;;;;;;;;;5.60;99.90;;;;;;5023680;28;20671;-74
2024/03/10 02:01:03;;;;;;;;;;;5.50;99.90;;;;;;5024861;28;20004;-74
2024/03/10 02:03:29;;;;;;;;;;;5.40;99.90;;;;;;5024246;28;20439;-73
2024/03/10 02:05:55;;;;;;;;;;;5.50;99.90;;;;;;5029342;28;19990;-75
2024/03/10 02:08:21;;;;;;;;;;;5.50;99.90;;;;;;5024570;28;20001;-73
2024/03/10 02:10:48;;;;;;;;;;;5.50;99.90;;;;;;5024043;28;20116;-75
2024/03/10 02:13:17;;;;;;;;;;;5.40;99.90;;;;;;5024541;28;20025;-73
2024/03/10 02:15:42;;;;;;;;;;;5.40;99.90;;;;;;5024888;28;20438;-72
2024/03/10 02:18:08;;;;;;;;;;;5.40;99.90;;;;;;5027420;28;19989;-75
2024/03/10 02:20:34;;;;;;;;;;;5.40;99.90;;;;;;5024679;28;20029;-74
2024/03/10 02:22:59;;;;;;;;;;;5.40;99.90;;;;;;5024375;28;20052;-77
2024/03/10 02:25:34;;;;;;;;;;;5.30;99.90;;;;;;5007659;28;20064;-76
2024/03/10 02:28:09;;;;;;;;;;;5.30;99.90;;;;;;5022009;28;20083;-75
2024/03/10 02:30:55;;;;;;;;;;;5.30;99.90;;;;;;5023944;28;19997;-76
2024/03/10 02:47:12;;;;;;;;;;;5.20;99.90;;;;;;5021097;28;19993;-73
2024/03/10 02:49:41;;;;;;;;;;;5.20;99.90;;;;;;5023637;28;19990;-77
2024/03/10 02:52:08;;;;;;;;;;;5.10;99.90;;;;;;5023958;28;20057;-76
2024/03/10 02:54:34;;;;;;;;;;;5.10;99.90;;;;;;5023960;28;20109;-73
2024/03/10 02:56:59;;;;;;;;;;;5.00;99.90;;;;;;5023716;28;20026;-73
2024/03/10 02:59:25;;;;;;;;;;;5.00;99.90;;;;;;5019642;28;20068;-78
2024/03/10 03:01:51;;;;;;;;;;;5.00;99.90;;;;;;5023568;28;20036;-74
2024/03/10 03:04:16;;;;;;;;;;;5.00;99.90;;;;;;5019674;28;19994;-76
2024/03/10 03:06:42;;;;;;;;;;;5.00;99.90;;;;;;5023881;28;20096;-73
2024/03/10 03:09:08;;;;;;;;;;;5.10;99.90;;;;;;5022374;28;19998;-73
2024/03/10 03:11:33;;;;;;;;;;;5.10;99.90;;;;;;5023623;28;20752;-76
2024/03/10 03:14:01;;;;;;;;;;;5.10;99.90;;;;;;5023335;28;20055;-74
2024/03/10 03:16:29;;;;;;;;;;;5.20;99.90;;;;;;5022965;28;19990;-76
2024/03/10 03:18:56;;;;;;;;;;;5.20;99.90;;;;;;5018982;28;19994;-77
2024/03/10 03:21:22;;;;;;;;;;;5.20;99.90;;;;;;5007510;28;19993;-78
2024/03/10 03:23:47;;;;;;;;;;;5.20;99.90;;;;;;5022877;28;19985;-75
2024/03/10 03:26:14;;;;;;;;;;;5.20;99.90;;;;;;5023397;28;20012;-74
2024/03/10 03:28:40;;;;;;;;;;;5.20;99.90;;;;;;5028681;28;19997;-74
2024/03/10 03:31:05;;;;;;;;;;;5.20;99.90;;;;;;5018029;28;19990;-76
2024/03/10 03:33:31;;;;;;;;;;;5.20;99.90;;;;;;5021638;28;20002;-76
2024/03/10 03:35:58;;;;;;;;;;;5.20;99.90;;;;;;5023140;28;20084;-78
2024/03/10 03:38:24;;;;;;;;;;;5.10;99.90;;;;;;5022910;28;20047;-75
2024/03/10 03:40:50;;;;;;;;;;;5.10;99.90;;;;;;5023000;28;20450;-74
2024/03/10 03:43:15;;;;;;;;;;;5.30;99.90;;;;;;5021055;28;20422;-75
2024/03/10 03:45:41;;;;;;;;;;;5.30;99.90;;;;;;5022774;28;20540;-75
2024/03/10 03:48:06;;;;;;;;;;;5.30;99.90;;;;;;5021689;28;20044;-77
2024/03/10 03:50:32;;;;;;;;;;;5.30;99.90;;;;;;5022674;28;20461;-74
2024/03/10 03:52:58;;;;;;;;;;;5.40;99.90;;;;;;5021445;28;20131;-74
2024/03/10 03:55:23;;;;;;;;;;;5.40;99.90;;;;;;5030477;28;20000;-75
2024/03/10 03:57:49;;;;;;;;;;;5.50;99.90;;;;;;5022122;28;19993;-74
2024/03/10 04:00:15;;;;;;;;;;;5.60;99.90;;;;;;5022322;28;20016;-78
2024/03/10 04:02:46;;;;;;;;;;;5.50;99.90;;;;;;5022322;28;19989;-76
2024/03/10 04:05:15;;;;;;;;;;;5.50;99.90;;;;;;5022730;28;19996;-75
2024/03/10 04:07:41;;;;;;;;;;;5.50;99.90;;;;;;5022420;28;20033;-75
2024/03/10 04:10:09;;;;;;;;;;;5.40;99.90;;;;;;5022183;28;20084;-76
2024/03/10 04:12:35;;;;;;;;;;;5.40;99.90;;;;;;5021758;28;20100;-75
2024/03/10 04:15:01;;;;;;;;;;;5.40;99.90;;;;;;5022779;28;19997;-75
2024/03/10 04:17:26;;;;;;;;;;;5.30;99.90;;;;;;5025838;28;20004;-76
2024/03/10 04:19:52;;;;;;;;;;;5.30;99.90;;;;;;5022196;28;19990;-73
2024/03/10 04:22:18;;;;;;;;;;;5.30;99.90;;;;;;5025626;28;20741;-73
2024/03/10 04:24:44;;;;;;;;;;;5.30;99.90;;;;;;5021939;28;19991;-76
2024/03/10 04:27:10;;;;;;;;;;;5.30;99.90;;;;;;5022068;28;20260;-73
2024/03/10 04:29:35;;;;;;;;;;;5.30;99.90;;;;;;5022274;28;20511;-76
2024/03/10 04:32:01;;;;;;;;;;;5.30;99.90;;;;;;5021566;28;19990;-74
2024/03/10 04:34:26;;;;;;;;;;;5.30;99.90;;;;;;5011972;28;19994;-76
2024/03/10 04:36:53;;;;;;;;;;;5.30;99.90;;;;;;5023033;28;20043;-73
2024/03/10 04:39:20;;;;;;;;;;;5.40;99.90;;;;;;5022092;28;19990;-75
2024/03/10 04:41:46;;;;;;;;;;;5.40;99.90;;;;;;5020307;28;20594;-79
2024/03/10 04:44:12;;;;;;;;;;;5.30;99.90;;;;;;5010983;28;20720;-74
2024/03/10 04:46:39;;;;;;;;;;;5.00;99.90;;;;;;5021313;28;19989;-74
2024/03/10 04:49:05;;;;;;;;;;;4.80;99.90;;;;;;5021478;28;20445;-74
2024/03/10 04:51:30;;;;;;;;;;;4.80;99.90;;;;;;5021116;28;20000;-74
2024/03/10 04:53:56;;;;;;;;;;;4.70;99.90;;;;;;5016161;28;20660;-77
2024/03/10 04:56:22;;;;;;;;;;;4.70;99.90;;;;;;5026125;28;19993;-78
2024/03/10 04:58:49;;;;;;;;;;;4.60;99.90;;;;;;5026379;28;19990;-74
2024/03/10 05:01:16;;;;;;;;;;;4.60;99.90;;;;;;5022141;28;20365;-75
2024/03/10 05:03:42;;;;;;;;;;;4.50;99.90;;;;;;5022071;28;20064;-75
2024/03/10 05:06:09;;;;;;;;;;;4.50;99.90;;;;;;5021909;28;19993;-75
2024/03/10 05:08:35;;;;;;;;;;;4.50;99.90;;;;;;5020676;28;20090;-75
2024/03/10 05:11:03;;;;;;;;;;;4.40;99.90;;;;;;5021892;28;20029;-75
2024/03/10 05:13:33;;;;;;;;;;;4.40;99.90;;;;;;5021345;28;20481;-74
2024/03/10 05:15:58;;;;;;;;;;;4.40;99.90;;;;;;5023450;28;19994;-76
2024/03/10 05:18:24;;;;;;;;;;;4.30;99.90;;;;;;5023707;28;19986;-74
2024/03/10 05:20:49;;;;;;;;;;;4.30;99.90;;;;;;5021876;28;19989;-73
2024/03/10 05:23:15;;;;;;;;;;;4.30;99.90;;;;;;5021813;28;20048;-75
2024/03/10 05:25:41;;;;;;;;;;;4.40;99.90;;;;;;5021980;28;20112;-74
2024/03/10 05:28:06;;;;;;;;;;;4.30;99.90;;;;;;5021825;28;19993;-78
2024/03/10 05:30:32;;;;;;;;;;;4.30;99.90;;;;;;5021044;28;19997;-77
2024/03/10 05:32:57;;;;;;;;;;;4.30;99.90;;;;;;5021399;28;20013;-75
2024/03/10 05:35:23;;;;;;;;;;;4.30;99.90;;;;;;5012943;28;19993;-75
2024/03/10 05:37:48;;;;;;;;;;;4.40;99.90;;;;;;5026551;28;20517;-75
2024/03/10 05:40:14;;;;;;;;;;;4.40;99.90;;;;;;5024811;28;19990;-74
2024/03/10 05:42:40;;;;;;;;;;;4.30;99.90;;;;;;5024104;28;19989;-76
2024/03/10 05:45:06;;;;;;;;;;;4.30;99.90;;;;;;5024796;28;20104;-75
2024/03/10 05:47:31;;;;;;;;;;;4.30;99.90;;;;;;5024294;28;20110;-78
2024/03/10 05:49:57;;;;;;;;;;;4.30;99.90;;;;;;5024297;28;20716;-74
2024/03/10 05:52:24;;;;;;;;;;;4.00;99.90;;;;;;5024346;28;20009;-73
2024/03/10 05:54:50;;;;;;;;;;;4.00;99.90;;;;;;5023921;28;20004;-73
2024/03/10 05:57:16;;;;;;;;;;;3.90;99.90;;;;;;5024613;28;19989;-75
2024/03/10 05:59:44;;;;;;;;;;;3.80;99.90;;;;;;5025179;28;19989;-76
2024/03/10 06:02:13;;;;;;;;;;;3.70;99.90;;;;;;5020527;28;19993;-73
2024/03/10 06:04:38;;;;;;;;;;;3.70;99.90;;;;;;5024449;28;20491;-74
2024/03/10 06:07:05;;;;;;;;;;;3.70;99.90;;;;;;5025221;28;19989;-73
2024/03/10 06:09:34;;;;;;;;;;;3.80;99.90;;;;;;5025128;28;20021;-76
2024/03/10 06:12:00;;;;;;;;;;;3.70;99.90;;;;;;5024733;28;20001;-74
2024/03/10 06:14:25;;;;;;;;;;;3.70;99.90;;;;;;5024260;28;19994;-78
2024/03/10 06:16:51;;;;;;;;;;;3.70;99.90;;;;;;5027429;28;20456;-80
2024/03/10 06:27:29;;;;;;;;;;;3.50;99.90;;;;;;5024145;28;20408;-74
2024/03/10 06:29:55;;;;;;;;;;;3.60;99.90;;;;;;5024448;28;19993;-75
2024/03/10 06:32:21;;;;;;;;;;;3.60;99.90;;;;;;5012850;28;20049;-73
2024/03/10 06:34:46;;;;;;;;;;;3.60;99.90;;;;;;5015569;28;19998;-76
2024/03/10 06:37:12;;;;;;;;;;;3.60;99.90;;;;;;5026317;28;19997;-76
2024/03/10 06:39:38;;;;;;;;;;;3.70;99.90;;;;;;5023870;28;19990;-75
2024/03/10 06:42:04;;;;;;;;;;;3.80;99.90;;;;;;5023631;28;20025;-75
2024/03/10 06:44:29;;;;;;;;;;;3.80;99.90;;;;;;5023876;28;20036;-73
2024/03/10 06:46:55;;;;;;;;;;;4.80;99.90;;;;;;5025039;28;20036;-77
2024/03/10 06:49:20;;;;;;;;;;;6.20;99.90;;;;;;5029865;28;20005;-74
2024/03/10 06:51:46;;;;;;;;;;;7.00;99.90;;;;;;5024152;28;20066;-76
2024/03/10 06:54:12;;;;;;;;;;;7.50;99.90;;;;;;5024194;28;20017;-76
2024/03/10 06:56:38;;;;;;;;;;;7.70;99.90;;;;;;5024284;28;20788;-76
2024/03/10 06:59:03;;;;;;;;;;;8.00;99.90;;;;;;5025908;28;19993;-74
2024/03/10 07:01:30;;;;;;;;;;;8.30;99.90;;;;;;5024693;28;19982;-74
2024/03/10 07:03:56;;;;;;;;;;;8.60;99.90;;;;;;5026472;28;19993;-76
2024/03/10 07:06:21;;;;;;;;;;;8.60;99.90;;;;;;5025432;28;20453;-80
2024/03/10 07:08:48;;;;;;;;;;;9.10;99.90;;;;;;5023158;28;20153;-76
2024/03/10 07:11:14;;;;;;;;;;;9.50;99.90;;;;;;5028369;28;20108;-75
2024/03/10 07:13:40;;;;;;;;;;;9.70;99.90;;;;;;5022262;28;20009;-74
2024/03/10 07:16:06;;;;;;;;;;;9.40;99.90;;;;;;5023074;28;20556;-78
2024/03/10 07:18:32;;;;;;;;;;;9.30;99.90;;;;;;5028806;28;19997;-77
2024/03/10 07:20:57;;;;;;;;;;;9.50;99.90;;;;;;5025403;28;19990;-73
2024/03/10 07:23:23;;;;;;;;;;;9.40;99.90;;;;;;5023049;28;19994;-74
2024/03/10 07:25:49;;;;;;;;;;;9.60;99.90;;;;;;5028672;28;20442;-73
2024/03/10 07:28:14;;;;;;;;;;;9.50;99.90;;;;;;5024208;28;20016;-75
2024/03/10 07:30:40;;;;;;;;;;;9.70;99.90;;;;;;5027904;28;19990;-74
2024/03/10 07:33:06;;;;;;;;;;;9.90;99.90;;;;;;5021987;28;20096;-74
2024/03/10 07:35:31;;;;;;;;;;;10.10;99.90;;;;;;5014785;28;20004;-77
2024/03/10 07:37:57;;;;;;;;;;;10.40;99.90;;;;;;5023901;28;19997;-75
2024/03/10 07:40:23;;;;;;;;;;;10.60;99.90;;;;;;5023042;28;20413;-73
2024/03/10 07:42:49;;;;;;;;;;;10.90;99.90;;;;;;5024754;28;20002;-75
2024/03/10 07:45:18;;;;;;;;;;;10.90;99.90;;;;;;5023080;28;19993;-75
2024/03/10 07:47:44;;;;;;;;;;;11.30;99.90;;;;;;5018386;28;20675;-76
2024/03/10 07:50:11;;;;;;;;;;;11.40;99.90;;;;;;5022093;28;20062;-77
2024/03/10 07:52:40;;;;;;;;;;;11.70;99.90;;;;;;5022396;28;20012;-78
2024/03/10 07:55:06;;;;;;;;;;;11.90;99.90;;;;;;5010111;28;20009;-77
2024/03/10 07:57:34;;;;;;;;;;;11.80;99.90;;;;;;5024382;28;20043;-73
2024/03/10 08:00:01;;;;;;;;;;;11.60;99.90;;;;;;5025347;28;20393;-73
2024/03/10 08:02:27;;;;;;;;;;;12.00;99.90;;;;;;5021813;28;19990;-75
2024/03/10 08:04:53;;;;;;;;;;;12.10;99.90;;;;;;5001372;28;20001;-73
2024/03/10 08:07:18;;;;;;;;;;;12.40;99.90;;;;;;5024096;28;19993;-75
2024/03/10 08:09:44;;;;;;;;;;;12.60;99.90;;;;;;5022590;28;20643;-74
2024/03/10 08:12:11;;;;;;;;;;;12.70;99.90;;;;;;5023119;28;20347;-75
2024/03/10 08:14:39;;;;;;;;;;;13.00;99.90;;;;;;5022260;28;20004;-75
2024/03/10 08:17:05;;;;;;;;;;;13.00;99.90;;;;;;5024329;28;20003;-73
2024/03/10 08:19:32;;;;;;;;;;;13.00;99.90;;;;;;5025435;28;20036;-74
2024/03/10 08:21:57;;;;;;;;;;;13.50;98.50;;;;;;5007201;28;20106;-73
2024/03/10 08:24:23;;;;;;;;;;;13.50;94.80;;;;;;5022381;28;20408;-74
2024/03/10 08:26:49;;;;;;;;;;;13.70;97.90;;;;;;5022869;28;19997;-73
2024/03/10 08:29:15;;;;;;;;;;;13.90;96.60;;;;;;5025029;28;20035;-72
2024/03/10 08:31:41;;;;;;;;;;;14.40;95.60;;;;;;5021786;28;19998;-73
2024/03/10 08:34:08;;;;;;;;;;;14.40;96.10;;;;;;5029235;28;20059;-73
2024/03/10 08:36:35;;;;;;;;;;;13.80;96.40;;;;;;5028504;28;20461;-72
2024/03/10 08:39:07;;;;;;;;;;;13.20;97.50;;;;;;5022409;28;19985;-74
2024/03/10 08:41:32;;;;;;;;;;;13.50;96.70;;;;;;5022234;28;20033;-75
2024/03/10 08:44:00;;;;;;;;;;;14.30;96.10;;;;;;5021489;28;20184;-72
2024/03/10 08:46:25;;;;;;;;;;;14.30;94.70;;;;;;5017003;28;20562;-73
2024/03/10 08:48:51;;;;;;;;;;;14.10;95.80;;;;;;5026014;28;20066;-73
2024/03/10 08:51:17;;;;;;;;;;;14.30;94.90;;;;;;5023222;28;20029;-74
2024/03/10 08:53:43;;;;;;;;;;;14.70;93.50;;;;;;5020096;28;20751;-75
2024/03/10 08:56:09;;;;;;;;;;;14.90;93.40;;;;;;5035248;28;20004;-74
2024/03/10 08:58:35;;;;;;;;;;;15.60;91.00;;;;;;5022321;28;20029;-74
2024/03/10 09:01:00;;;;;;;;;;;15.00;90.50;;;;;;5032582;28;19994;-76
2024/03/10 09:03:26;;;;;;;;;;;14.40;92.20;;;;;;5024046;28;20001;-77
2024/03/10 09:05:51;;;;;;;;;;;14.80;92.20;;;;;;5031764;28;19997;-77
2024/03/10 09:08:17;;;;;;;;;;;15.00;91.50;;;;;;5029117;28;20113;-75
2024/03/10 09:10:43;;;;;;;;;;;15.60;90.80;;;;;;5034122;28;20028;-75
2024/03/10 09:13:09;;;;;;;;;;;16.00;87.80;;;;;;5026699;28;20021;-74
2024/03/10 09:15:34;;;;;;;;;;;16.70;85.30;;;;;;5041563;28;19990;-75
2024/03/10 09:18:00;;;;;;;;;;;17.20;80.30;;;;;;5029392;28;20246;-74
2024/03/10 09:20:26;;;;;;;;;;;17.00;74.80;;;;;;5032482;28;20041;-76
2024/03/10 09:22:54;;;;;;;;;;;17.00;80.80;;;;;;5022834;28;19994;-76
2024/03/10 09:25:22;;;;;;;;;;;17.50;79.20;;;;;;5026267;28;20373;-75
2024/03/10 09:27:49;;;;;;;;;;;18.20;76.70;;;;;;5026454;28;20044;-75
2024/03/10 09:30:17;;;;;;;;;;;17.50;72.10;;;;;;5030829;28;20006;-74
2024/03/10 09:32:49;;;;;;;;;;;17.60;75.00;;;;;;5026542;28;20043;-74
2024/03/10 09:35:20;;;;;;;;;;;18.40;72.00;;;;;;5027391;28;20089;-74
2024/03/10 09:37:46;;;;;;;;;;;18.40;68.80;;;;;;5031323;28;19993;-75
2024/03/10 09:40:13;;;;;;;;;;;18.80;71.10;;;;;;5029941;28;20001;-77
2024/03/10 09:42:39;;;;;;;;;;;18.70;68.50;;;;;;5028478;28;20003;-75
2024/03/10 09:45:13;;;;;;;;;;;19.40;64.10;;;;;;5024626;28;19989;-74
2024/03/10 09:47:40;;;;;;;;;;;19.10;63.50;;;;;;5030205;28;19996;-74
2024/03/10 09:50:06;;;;;;;;;;;19.60;64.90;;;;;;5033654;28;19990;-75
2024/03/10 09:52:32;;;;;;;;;;;19.30;62.40;;;;;;5031530;28;20009;-75
2024/03/10 09:54:58;;;;;;;;;;;19.80;58.60;;;;;;5027469;28;19994;-77
2024/03/10 09:57:24;;;;;;;;;;;19.10;57.90;;;;;;5023956;28;20483;-76
2024/03/10 09:59:50;;;;;;;;;;;18.00;57.80;;;;;;5025380;28;20021;-74
2024/03/10 10:02:21;;;;;;;;;;;17.10;56.80;;;;;;5024245;28;20394;-74
2024/03/10 10:04:56;;;;;;;;;;;16.20;59.70;;;;;;5025789;28;20073;-76
2024/03/10 10:07:24;;;;;;;;;;;15.60;62.50;;;;;;5024525;28;20029;-77
2024/03/10 10:09:54;;;;;;;;;;;16.30;62.80;;;;;;5024484;28;20032;-78
2024/03/10 10:12:20;;;;;;;;;;;16.20;65.60;;;;;;5016917;28;20401;-75
2024/03/10 10:14:47;;;;;;;;;;;15.40;64.20;;;;;;5025192;28;19990;-77
2024/03/10 10:17:14;;;;;;;;;;;15.30;63.40;;;;;;5032154;28;20002;-76
2024/03/10 10:19:40;;;;;;;;;;;15.70;61.90;;;;;;5030238;28;19993;-75
2024/03/10 10:22:06;;;;;;;;;;;15.60;59.20;;;;;;5024420;28;20047;-76
2024/03/10 10:24:32;;;;;;;;;;;15.60;59.10;;;;;;5021479;28;19989;-75
2024/03/10 10:26:58;;;;;;;;;;;15.20;59.70;;;;;;5027448;28;20043;-75
2024/03/10 10:29:25;;;;;;;;;;;15.30;57.50;;;;;;5023271;28;19993;-75
2024/03/10 10:31:57;;;;;;;;;;;15.60;61.40;;;;;;5020797;28;20000;-74
2024/03/10 10:34:23;;;;;;;;;;;15.70;63.20;;;;;;5004567;28;20542;-74
2024/03/10 10:36:49;;;;;;;;;;;15.20;61.40;;;;;;5022535;28;19997;-75
2024/03/10 10:39:24;;;;;;;;;;;14.60;61.10;;;;;;5023288;28;19989;-74
2024/03/10 10:41:51;;;;;;;;;;;15.30;60.20;;;;;;5019938;28;20001;-73
2024/03/10 10:44:18;;;;;;;;;;;15.30;57.50;;;;;;5019841;28;19993;-76
2024/03/10 10:46:44;;;;;;;;;;;15.20;58.60;;;;;;5029210;28;20080;-74
2024/03/10 10:49:11;;;;;;;;;;;15.20;57.90;;;;;;5028833;28;20457;-73
2024/03/10 10:51:36;;;;;;;;;;;15.00;58.60;;;;;;5024328;28;20097;-75
2024/03/10 10:54:12;;;;;;;;;;;14.40;58.20;;;;;;5028468;28;20070;-75
2024/03/10 10:56:38;;;;;;;;;;;14.20;56.20;;;;;;5022401;28;20092;-74
2024/03/10 10:59:04;;;;;;;;;;;14.60;60.50;;;;;;5026606;28;20136;-74
2024/03/10 11:01:29;;;;;;;;;;;15.00;59.30;;;;;;5024798;28;20582;-74
2024/03/10 11:03:57;;;;;;;;;;;15.80;59.00;;;;;;5029608;28;19989;-73
2024/03/10 11:06:23;;;;;;;;;;;16.30;56.40;;;;;;5032990;28;20040;-75
2024/03/10 11:08:52;;;;;;;;;;;16.60;58.10;;;;;;5023203;28;20354;-74
2024/03/10 11:11:36;;;;;;;;;;;16.50;58.30;;;;;;5028618;28;20057;-73
2024/03/10 11:14:03;;;;;;;;;;;16.60;56.40;;;;;;5026083;28;20013;-76
2024/03/10 11:16:31;;;;;;;;;;;16.60;52.80;;;;;;5026894;28;19993;-74
2024/03/10 11:19:14;;;;;;;;;;;16.40;52.00;;;;;;5026744;28;20112;-76
2024/03/10 11:21:41;;;;;;;;;;;16.80;55.70;;;;;;5023505;28;20516;-74
2024/03/10 11:24:14;;;;;;;;;;;17.20;54.40;;;;;;5022692;28;20140;-75
2024/03/10 11:26:40;;;;;;;;;;;16.60;52.10;;;;;;5024281;28;19997;-73
2024/03/10 11:29:21;;;;;;;;;;;16.40;53.00;;;;;;5029882;28;19997;-74
2024/03/10 11:31:47;;;;;;;;;;;16.40;51.90;;;;;;5018901;28;20305;-76
2024/03/10 11:34:13;;;;;;;;;;;16.30;53.10;;;;;;5029964;28;20468;-74
2024/03/10 11:36:39;;;;;;;;;;;17.00;53.10;;;;;;5026933;28;19993;-74
2024/03/10 11:39:07;;;;;;;;;;;17.30;51.60;;;;;;5029576;28;19996;-76
2024/03/10 11:41:33;;;;;;;;;;;16.70;51.00;;;;;;5020909;28;20040;-73
2024/03/10 11:43:59;;;;;;;;;;;16.70;51.60;;;;;;5023413;28;19993;-74
2024/03/10 11:46:26;;;;;;;;;;;16.30;50.00;;;;;;5021367;28;20060;-75
2024/03/10 11:48:52;;;;;;;;;;;16.50;51.20;;;;;;5022710;28;19998;-75
2024/03/10 11:51:18;;;;;;;;;;;16.60;48.70;;;;;;5024223;28;19997;-74
2024/03/10 11:53:44;;;;;;;;;;;15.50;48.20;;;;;;5022304;28;20475;-73
2024/03/10 11:56:10;;;;;;;;;;;16.20;49.30;;;;;;5022439;28;19998;-73
2024/03/10 11:58:36;;;;;;;;;;;15.70;47.30;;;;;;5006816;28;20447;-74
2024/03/10 12:01:10;;;;;;;;;;;15.80;49.00;;;;;;5020962;28;20067;-73
2024/03/10 12:03:37;;;;;;;;;;;15.70;50.00;;;;;;5024280;28;19992;-73
2024/03/10 12:06:05;;;;;;;;;;;15.90;50.20;;;;;;5022528;28;20457;-74
2024/03/10 12:08:33;;;;;;;;;;;16.10;51.00;;;;;;5029179;28;19989;-74
2024/03/10 12:11:02;;;;;;;;;;;16.90;53.00;;;;;;5020456;28;20764;-74
2024/03/10 12:13:27;;;;;;;;;;;16.60;49.90;;;;;;5018974;28;20012;-74
2024/03/10 12:16:01;;;;;;;;;;;16.80;52.70;;;;;;5023343;28;20358;-73
2024/03/10 12:18:29;;;;;;;;;;;17.40;56.30;;;;;;5027177;28;19993;-74
2024/03/10 12:20:57;;;;;;;;;;;17.10;52.80;;;;;;5024135;28;20055;-74
2024/03/10 12:23:23;;;;;;;;;;;16.80;49.80;;;;;;5026356;28;20017;-73
2024/03/10 12:25:52;;;;;;;;;;;16.40;50.80;;;;;;5023769;28;20019;-74
2024/03/10 12:28:20;;;;;;;;;;;16.10;52.70;;;;;;5022411;28;20048;-74
2024/03/10 12:30:46;;;;;;;;;;;16.10;53.70;;;;;;5027712;28;20035;-73
2024/03/10 12:33:12;;;;;;;;;;;15.30;52.10;;;;;;5023951;28;20475;-73
2024/03/10 12:35:38;;;;;;;;;;;14.90;50.30;;;;;;5025339;28;20001;-74
2024/03/10 12:38:04;;;;;;;;;;;14.80;52.20;;;;;;5028261;28;20836;-74
2024/03/10 12:40:33;;;;;;;;;;;15.30;52.90;;;;;;5025241;28;19993;-73
2024/03/10 12:43:00;;;;;;;;;;;15.70;52.50;;;;;;5024144;28;19993;-74
2024/03/10 12:45:27;;;;;;;;;;;15.60;48.80;;;;;;5024944;28;20499;-73
2024/03/10 12:47:53;;;;;;;;;;;15.70;49.70;;;;;;5026505;28;20561;-73
2024/03/10 12:50:19;;;;;;;;;;;15.90;50.10;;;;;;5022593;28;20035;-74
2024/03/10 12:52:44;;;;;;;;;;;16.40;51.70;;;;;;5024525;28;20005;-73
2024/03/10 12:55:11;;;;;;;;;;;16.30;50.00;;;;;;5020532;28;20005;-74
2024/03/10 12:57:37;;;;;;;;;;;16.20;49.00;;;;;;5029911;28;19996;-73
2024/03/10 13:00:47;;;;;;;;;;;16.20;47.70;;;;;;5024622;28;20075;-74
2024/03/10 13:02:52;;;;;;;;;;;15.70;50.50;;;;;;5006459;28;20655;-74
2024/03/10 13:05:18;;;;;;;;;;;15.00;54.70;;;;;;5022398;28;20000;-78
2024/03/10 13:07:44;;;;;;;;;;;15.20;53.60;;;;;;5033000;28;19994;-76
2024/03/10 13:10:10;;;;;;;;;;;15.10;52.40;;;;;;5023841;28;20390;-76
2024/03/10 13:12:39;;;;;;;;;;;15.10;52.60;;;;;;5027713;28;20688;-72
2024/03/10 13:15:05;;;;;;;;;;;15.20;52.30;;;;;;5006307;28;20020;-77
2024/03/10 13:17:31;;;;;;;;;;;15.00;53.80;;;;;;5023785;28;20047;-79
2024/03/10 13:19:57;;;;;;;;;;;15.00;54.80;;;;;;5023785;28;20008;-76
2024/03/10 13:22:22;;;;;;;;;;;14.90;54.70;;;;;;5019168;28;19990;-75
2024/03/10 13:24:49;;;;;;;;;;;14.90;53.30;;;;;;4996642;28;20461;-76
2024/03/10 13:27:15;;;;;;;;;;;15.20;52.50;;;;;;5008630;28;20389;-76
2024/03/10 13:29:40;;;;;;;;;;;15.30;52.40;;;;;;5018306;28;19989;-76
2024/03/10 13:32:06;;;;;;;;;;;15.40;51.20;;;;;;5022102;28;19989;-77
2024/03/10 13:34:35;;;;;;;;;;;15.40;48.60;;;;;;5024511;28;20001;-74
2024/03/10 13:37:04;;;;;;;;;;;15.30;53.40;;;;;;5020429;28;20113;-74
2024/03/10 13:39:33;;;;;;;;;;;15.60;49.00;;;;;;5020697;28;20376;-74
2024/03/10 13:41:58;;;;;;;;;;;15.40;51.90;;;;;;5019322;28;19990;-74
2024/03/10 13:44:26;;;;;;;;;;;15.60;53.10;;;;;;5023231;28;20001;-74
2024/03/10 13:46:52;;;;;;;;;;;15.50;52.30;;;;;;5018418;28;19994;-75
2024/03/10 13:49:18;;;;;;;;;;;15.80;51.40;;;;;;5019075;28;20083;-74
2024/03/10 13:51:45;;;;;;;;;;;16.10;49.70;;;;;;5019452;28;20001;-74
2024/03/10 13:54:12;;;;;;;;;;;16.00;52.40;;;;;;5019903;28;20052;-75
2024/03/10 13:56:38;;;;;;;;;;;15.90;52.30;;;;;;5006935;28;20122;-75
2024/03/10 13:59:04;;;;;;;;;;;15.60;55.30;;;;;;5024654;28;20072;-75
2024/03/10 14:01:30;;;;;;;;;;;15.70;55.20;;;;;;5026538;28;20088;-74
2024/03/10 14:03:56;;;;;;;;;;;15.40;54.30;;;;;;5028421;28;20703;-75
2024/03/10 14:06:22;;;;;;;;;;;15.30;53.90;;;;;;5031391;28;19997;-75
2024/03/10 14:08:47;;;;;;;;;;;15.00;50.60;;;;;;5024346;28;19995;-76
2024/03/10 14:11:13;;;;;;;;;;;14.80;52.70;;;;;;5028856;28;20575;-76
2024/03/10 14:13:39;;;;;;;;;;;14.40;54.50;;;;;;5027348;28;20572;-76
2024/03/10 14:16:06;;;;;;;;;;;14.20;58.00;;;;;;5023540;28;20670;-75
2024/03/10 14:18:32;;;;;;;;;;;14.00;59.50;;;;;;5026424;28;20001;-75
2024/03/10 14:21:00;;;;;;;;;;;14.30;57.50;;;;;;5007372;28;19993;-76
2024/03/10 14:23:28;;;;;;;;;;;14.30;57.80;;;;;;5021600;28;19990;-79
2024/03/10 14:25:54;;;;;;;;;;;14.20;59.40;;;;;;5020667;28;20051;-75
2024/03/10 14:28:20;;;;;;;;;;;14.20;59.50;;;;;;5022864;28;19998;-75
2024/03/10 14:30:46;;;;;;;;;;;14.40;61.40;;;;;;5024729;28;19989;-76
2024/03/10 14:33:13;;;;;;;;;;;14.80;59.80;;;;;;5024227;28;19994;-77
2024/03/10 14:35:38;;;;;;;;;;;14.90;60.40;;;;;;5025783;28;20032;-77
2024/03/10 14:38:07;;;;;;;;;;;15.20;57.70;;;;;;5028407;28;20080;-77
2024/03/10 14:40:33;;;;;;;;;;;15.20;55.80;;;;;;5022487;28;20076;-75
2024/03/10 14:42:59;;;;;;;;;;;14.90;57.20;;;;;;5021594;28;20100;-75